Time;durP1;ratioP1;P1;durP2;ratioP2;P2;SDS_P1;SDS_P2;PMS_P1;PMS_P2;Temp;Humidity;BMP_temperature;BMP_pressure;BME280_temperature;BME280_humidity;BME280_pressure;Samples;Min_cycle;Max_cycle;Signal;HPM_P1;HPM_P2
2022/04/11 00:01:24;;;;;;;12.23;11.53;;;;;;;1.95;97.97;92283.38;5010261;28;20223;-70
2022/04/11 00:03:50;;;;;;;10.30;9.80;;;;;;;2.11;97.86;92296.25;5009739;28;20231;-71
2022/04/11 00:06:15;;;;;;;11.37;10.67;;;;;;;2.15;97.74;92302.47;5009724;28;20259;-70
2022/04/11 00:08:41;;;;;;;10.60;10.10;;;;;;;2.14;97.20;92308.66;5007914;28;20243;-71
2022/04/11 00:11:06;;;;;;;10.13;9.73;;;;;;;2.12;97.66;92308.09;5009813;28;20203;-70
2022/04/11 00:13:32;;;;;;;12.30;11.57;;;;;;;2.20;96.01;92301.78;5001464;28;20247;-71
2022/04/11 00:15:57;;;;;;;10.03;9.63;;;;;;;2.23;97.53;92309.03;4989710;28;20200;-70
2022/04/11 00:18:23;;;;;;;9.50;9.10;;;;;;;2.06;95.86;92292.81;4994700;28;20234;-71
2022/04/11 00:20:49;;;;;;;10.70;10.20;;;;;;;2.23;95.67;92311.59;5009363;28;20187;-71
2022/04/11 00:23:14;;;;;;;10.93;10.40;;;;;;;2.36;94.83;92311.28;5008973;28;20241;-70
2022/04/11 00:25:40;;;;;;;10.27;9.57;;;;;;;2.31;94.00;92329.22;5012427;28;20211;-70
2022/04/11 00:28:06;;;;;;;10.60;9.97;;;;;;;2.32;93.65;92323.09;5013031;28;20280;-71
2022/04/11 00:30:31;;;;;;;10.40;9.80;;;;;;;2.16;94.17;92292.97;5013873;28;20206;-70
2022/04/11 00:32:57;;;;;;;10.20;9.67;;;;;;;2.30;93.98;92335.41;5014816;28;20218;-72
2022/04/11 00:35:22;;;;;;;10.73;10.17;;;;;;;2.15;94.16;92314.59;5012245;28;20199;-71
2022/04/11 00:37:48;;;;;;;10.50;9.97;;;;;;;2.29;93.04;92339.75;5013638;28;20227;-72
2022/04/11 00:40:13;;;;;;;10.50;9.90;;;;;;;2.39;93.58;92345.09;5013242;28;20199;-70
2022/04/11 00:42:39;;;;;;;10.67;10.17;;;;;;;2.46;92.56;92350.84;5013691;28;20215;-71
2022/04/11 00:45:06;;;;;;;9.63;9.23;;;;;;;2.45;92.60;92351.88;4993122;28;20224;-70
2022/04/11 00:47:31;;;;;;;9.53;9.03;;;;;;;2.40;91.53;92353.56;4992808;28;20188;-72
2022/04/11 00:50:05;;;;;;;10.27;9.77;;;;;;;2.40;90.75;92353.56;5010797;28;20251;-71
2022/04/11 00:52:33;;;;;;;11.20;10.33;;;;;;;2.45;90.50;92357.00;5012916;28;20195;-71
2022/04/11 00:54:59;;;;;;;10.83;9.60;;;;;;;2.53;92.04;92355.84;5012954;28;20231;-72
2022/04/11 00:57:26;;;;;;;10.13;9.50;;;;;;;2.39;91.32;92350.22;5011806;28;20190;-75
2022/04/11 00:59:53;;;;;;;10.07;9.60;;;;;;;2.32;91.90;92328.22;5012964;28;20235;-75
2022/04/11 01:02:18;;;;;;;10.40;9.80;;;;;;;2.46;90.20;92368.88;5013370;28;20211;-75
2022/04/11 01:04:43;;;;;;;10.27;9.67;;;;;;;2.45;88.57;92357.00;5012403;28;20300;-76
2022/04/11 01:07:09;;;;;;;9.73;9.30;;;;;;;2.42;89.48;92352.34;5013776;28;20179;-75
2022/04/11 01:09:35;;;;;;;10.83;10.33;;;;;;;2.44;88.85;92372.72;5011991;28;20283;-76
2022/04/11 01:12:02;;;;;;;8.70;8.20;;;;;;;2.44;89.32;92375.28;5012134;28;20175;-75
2022/04/11 01:14:28;;;;;;;10.53;9.97;;;;;;;2.39;89.77;92375.19;5012214;28;20258;-75
2022/04/11 01:16:53;;;;;;;9.53;9.13;;;;;;;2.58;87.02;92389.41;5012689;28;20210;-75
2022/04/11 01:19:20;;;;;;;10.90;9.93;;;;;;;2.53;88.17;92389.31;5012314;28;20265;-75
2022/04/11 01:21:46;;;;;;;11.13;10.63;;;;;;;2.61;87.61;92404.38;5012265;28;20235;-75
2022/04/11 01:24:12;;;;;;;11.23;10.57;;;;;;;2.56;87.56;92388.84;5012008;28;20231;-76
2022/04/11 01:26:37;;;;;;;9.13;8.73;;;;;;;2.53;86.74;92399.63;5011538;28;20247;-74
2022/04/11 01:29:04;;;;;;;10.13;9.63;;;;;;;2.66;86.01;92419.94;5012175;28;20246;-75
2022/04/11 01:31:32;;;;;;;9.17;8.70;;;;;;;2.62;87.91;92411.09;5012897;28;20191;-75
2022/04/11 01:33:58;;;;;;;11.00;10.50;;;;;;;2.61;86.92;92417.28;5012226;28;20290;-75
2022/04/11 01:36:24;;;;;;;10.07;9.50;;;;;;;2.66;86.13;92427.66;5012328;28;20191;-76
2022/04/11 01:38:49;;;;;;;9.13;8.83;;;;;;;2.65;86.81;92423.50;5012162;28;20326;-74
2022/04/11 01:41:15;;;;;;;9.83;9.33;;;;;;;2.72;86.40;92430.09;5010990;28;20215;-75
2022/04/11 01:43:40;;;;;;;10.03;9.60;;;;;;;2.84;85.98;92429.97;5012223;28;20290;-75
2022/04/11 01:46:06;;;;;;;10.50;9.90;;;;;;;2.67;85.41;92429.22;5009531;28;20187;-76
2022/04/11 01:48:31;;;;;;;10.50;10.00;;;;;;;2.50;85.46;92415.56;5011591;28;20235;-76
2022/04/11 01:50:56;;;;;;;9.27;8.53;;;;;;;2.71;85.01;92436.25;5011889;28;20187;-75
2022/04/11 01:53:22;;;;;;;10.43;9.93;;;;;;;2.58;83.39;92415.16;5011968;28;20238;-75
2022/04/11 01:55:48;;;;;;;9.40;8.80;;;;;;;2.80;84.05;92455.44;5012225;28;20202;-75
2022/04/11 01:58:14;;;;;;;10.17;9.50;;;;;;;2.83;85.44;92446.47;5011266;28;20234;-75
2022/04/11 02:00:41;;;;;;;10.63;10.07;;;;;;;2.71;83.94;92453.50;5012372;28;20188;-76
2022/04/11 02:03:08;;;;;;;9.10;8.53;;;;;;;2.58;86.36;92425.47;5010302;28;20269;-75
2022/04/11 02:05:34;;;;;;;9.57;8.97;;;;;;;2.74;84.14;92465.94;5011512;28;20242;-75
2022/04/11 02:08:00;;;;;;;9.73;9.33;;;;;;;2.65;85.09;92464.75;5010615;28;20195;-75
2022/04/11 02:10:27;;;;;;;9.13;8.77;;;;;;;2.71;84.47;92476.69;5011840;28;20184;-75
2022/04/11 02:12:54;;;;;;;10.47;9.97;;;;;;;2.68;84.59;92477.16;5010322;28;20209;-75
2022/04/11 02:15:20;;;;;;;9.33;8.93;;;;;;;2.66;84.82;92471.47;5011366;28;20188;-75
2022/04/11 02:17:50;;;;;;;9.67;9.17;;;;;;;2.63;87.64;92479.66;5025558;28;20227;-75
2022/04/11 02:20:16;;;;;;;9.00;8.60;;;;;;;2.54;85.42;92486.19;5010870;28;20265;-75
2022/04/11 02:22:52;;;;;;;10.83;10.20;;;;;;;2.61;86.85;92492.00;5009092;28;20261;-75
2022/04/11 02:25:21;;;;;;;10.10;9.63;;;;;;;2.57;87.43;92496.81;5010964;28;20227;-75
2022/04/11 02:27:47;;;;;;;9.50;9.00;;;;;;;2.41;87.44;92491.66;5009996;28;20205;-75
2022/04/11 02:30:14;;;;;;;10.10;9.53;;;;;;;2.44;88.89;92504.88;5010537;28;20187;-76
2022/04/11 02:32:40;;;;;;;10.40;9.80;;;;;;;2.51;88.36;92517.56;5011520;28;20195;-75
2022/04/11 02:35:06;;;;;;;10.87;10.27;;;;;;;2.50;88.21;92516.03;5010478;28;20239;-75
2022/04/11 02:37:36;;;;;;;10.93;10.17;;;;;;;2.32;89.36;92523.97;5011053;28;20199;-75
2022/04/11 02:40:02;;;;;;;9.97;9.47;;;;;;;2.25;90.32;92513.00;5010842;28;20231;-76
2022/04/11 02:42:28;;;;;;;9.90;9.50;;;;;;;2.31;91.87;92528.31;5010878;28;20207;-75
2022/04/11 02:44:54;;;;;;;9.40;8.60;;;;;;;2.14;92.06;92530.06;5008592;28;20238;-76
2022/04/11 02:47:20;;;;;;;10.13;9.63;;;;;;;2.19;92.79;92534.53;5010065;28;20218;-76
2022/04/11 02:49:46;;;;;;;9.33;8.93;;;;;;;2.16;92.83;92535.00;5010554;28;20227;-75
2022/04/11 02:52:12;;;;;;;9.93;9.53;;;;;;;2.13;94.34;92520.00;5010345;28;20215;-75
2022/04/11 02:54:38;;;;;;;9.37;8.87;;;;;;;2.20;93.70;92543.81;5010932;28;20243;-75
2022/04/11 02:57:05;;;;;;;10.10;9.60;;;;;;;2.04;94.13;92547.13;5008299;28;20902;-75
2022/04/11 02:59:32;;;;;;;9.60;8.97;;;;;;;2.15;94.44;92551.47;5010797;28;20227;-75
2022/04/11 03:01:57;;;;;;;10.03;9.43;;;;;;;2.14;94.70;92557.59;5011240;28;20215;-75
2022/04/11 03:04:23;;;;;;;10.40;9.90;;;;;;;2.07;94.60;92562.13;5010247;28;20293;-75
2022/04/11 03:06:49;;;;;;;9.57;9.17;;;;;;;2.03;96.05;92556.63;5010816;28;20207;-76
2022/04/11 03:09:14;;;;;;;9.83;9.33;;;;;;;1.95;95.35;92544.09;5010133;28;20234;-75
2022/04/11 03:11:39;;;;;;;10.80;10.33;;;;;;;1.95;95.85;92564.69;5009583;28;20305;-75
2022/04/11 03:14:05;;;;;;;10.23;9.47;;;;;;;1.92;96.34;92569.50;5010447;28;20230;-75
2022/04/11 03:16:31;;;;;;;11.63;11.03;;;;;;;2.07;96.27;92569.84;5010793;28;20198;-76
2022/04/11 03:18:57;;;;;;;11.57;10.80;;;;;;;2.00;96.34;92571.75;5010146;28;20235;-75
2022/04/11 03:21:22;;;;;;;11.47;10.77;;;;;;;1.85;95.89;92558.56;5010494;28;20250;-75
2022/04/11 03:23:48;;;;;;;10.43;9.93;;;;;;;2.04;95.20;92573.63;5010023;28;20243;-72
2022/04/11 03:26:14;;;;;;;10.50;10.00;;;;;;;2.08;94.32;92579.13;5009085;28;20226;-71
2022/04/11 03:28:39;;;;;;;9.43;8.97;;;;;;;2.12;92.86;92587.97;5010069;28;20235;-71
2022/04/11 03:31:05;;;;;;;9.90;9.40;;;;;;;2.09;92.31;92576.31;5011084;28;20206;-70
2022/04/11 03:33:30;;;;;;;9.07;8.67;;;;;;;2.01;93.13;92574.09;5009834;28;20223;-71
2022/04/11 03:35:56;;;;;;;10.20;9.70;;;;;;;1.94;93.60;92565.72;5010359;28;20223;-72
2022/04/11 03:38:21;;;;;;;9.70;9.20;;;;;;;2.04;92.60;92567.72;5009139;28;20283;-72
2022/04/11 03:40:47;;;;;;;10.80;10.00;;;;;;;2.13;91.83;92600.59;5010251;28;20223;-70
2022/04/11 03:43:12;;;;;;;10.43;9.83;;;;;;;2.03;92.24;92579.81;5009196;28;20235;-71
2022/04/11 03:45:38;;;;;;;9.80;9.40;;;;;;;2.17;92.76;92577.75;5010198;28;20295;-71
2022/04/11 03:48:04;;;;;;;10.47;10.00;;;;;;;2.50;92.84;92603.63;5009072;28;20195;-75
2022/04/11 03:50:29;;;;;;;10.60;10.00;;;;;;;2.23;90.78;92600.00;5005733;28;20261;-79
2022/04/11 03:52:55;;;;;;;10.47;9.87;;;;;;;2.34;91.15;92612.06;5009580;28;20195;-78
2022/04/11 03:55:20;;;;;;;11.13;10.43;;;;;;;2.14;89.89;92591.06;5009392;28;20251;-76
2022/04/11 03:57:46;;;;;;;11.07;10.40;;;;;;;2.21;89.47;92604.63;5005347;28;20179;-75
2022/04/11 04:00:12;;;;;;;11.33;10.60;;;;;;;2.41;89.00;92610.16;5009281;28;20229;-76
2022/04/11 04:02:38;;;;;;;11.10;10.10;;;;;;;2.32;89.22;92614.09;5009986;28;20243;-86
2022/04/11 04:05:04;;;;;;;11.07;10.50;;;;;;;2.37;86.74;92617.53;5008521;28;20215;-79
2022/04/11 04:07:29;;;;;;;12.47;11.80;;;;;;;2.04;86.59;92562.56;5007666;28;20223;-77
2022/04/11 04:09:55;;;;;;;11.33;10.53;;;;;;;2.40;85.27;92613.72;5008766;28;20257;-77
2022/04/11 04:12:21;;;;;;;10.20;9.60;;;;;;;2.35;85.00;92616.22;5008992;28;20183;-74
2022/04/11 04:14:48;;;;;;;11.03;10.53;;;;;;;2.40;86.29;92627.38;5007588;28;20331;-76
2022/04/11 04:17:13;;;;;;;9.77;9.37;;;;;;;1.98;85.59;92574.53;5009183;28;20196;-85
2022/04/11 04:19:39;;;;;;;9.60;9.20;;;;;;;2.48;83.45;92642.50;5008343;28;20286;-79
2022/04/11 04:22:05;;;;;;;11.40;10.80;;;;;;;2.49;83.78;92638.13;5008461;28;20223;-75
2022/04/11 04:24:34;;;;;;;10.80;10.13;;;;;;;2.41;85.13;92631.53;5006462;28;20219;-78
2022/04/11 04:27:01;;;;;;;10.63;10.03;;;;;;;2.47;83.84;92645.28;5008853;28;20180;-80
2022/04/11 04:29:27;;;;;;;10.70;10.10;;;;;;;2.34;83.62;92624.94;5008580;28;20246;-80
2022/04/11 04:31:54;;;;;;;10.83;10.33;;;;;;;2.43;83.21;92629.50;5009300;28;20721;-79
2022/04/11 04:34:22;;;;;;;11.17;10.67;;;;;;;2.48;83.07;92664.88;5006869;28;20219;-79
2022/04/11 04:36:48;;;;;;;10.90;10.17;;;;;;;2.53;82.21;92660.63;5006450;28;20191;-75
2022/04/11 04:39:14;;;;;;;11.60;10.83;;;;;;;2.53;81.47;92657.25;5007225;28;20223;-77
2022/04/11 04:41:40;;;;;;;11.37;10.77;;;;;;;2.74;81.05;92665.16;5008076;28;20211;-79
2022/04/11 04:44:06;;;;;;;10.77;10.13;;;;;;;2.61;82.08;92673.16;5007227;28;20231;-78
2022/04/11 04:46:35;;;;;;;11.13;10.03;;;;;;;2.77;82.44;92676.81;5008728;28;20941;-79
2022/04/11 04:49:02;;;;;;;12.43;11.60;;;;;;;2.65;80.30;92691.50;5008440;28;20239;-79
2022/04/11 04:51:27;;;;;;;10.90;10.13;;;;;;;2.47;81.37;92660.75;5008843;28;20195;-78
2022/04/11 04:53:53;;;;;;;10.70;10.00;;;;;;;2.60;80.47;92688.84;5008744;28;20265;-79
2022/04/11 04:56:21;;;;;;;12.87;10.80;;;;;;;2.61;79.47;92692.97;5007147;28;20190;-79
2022/04/11 04:58:47;;;;;;;10.33;9.90;;;;;;;2.52;80.79;92678.91;5007183;28;20235;-78
2022/04/11 05:01:13;;;;;;;10.50;10.10;;;;;;;2.71;80.77;92688.00;5024015;28;20188;-79
2022/04/11 05:03:38;;;;;;;9.70;9.20;;;;;;;2.63;79.83;92698.69;5007606;28;20232;-79
2022/04/11 05:06:04;;;;;;;12.80;12.17;;;;;;;2.69;78.54;92702.94;5006407;28;20188;-80
2022/04/11 05:08:29;;;;;;;10.00;9.60;;;;;;;2.70;77.54;92712.22;5005966;28;20223;-78
2022/04/11 05:10:55;;;;;;;9.77;9.17;;;;;;;2.61;78.12;92695.56;5009251;28;20183;-76
2022/04/11 05:13:20;;;;;;;11.40;10.90;;;;;;;2.69;77.00;92702.94;5009244;28;20227;-76
2022/04/11 05:15:46;;;;;;;11.30;10.60;;;;;;;2.90;79.43;92723.72;5012546;28;20222;-80
2022/04/11 05:18:13;;;;;;;10.53;10.03;;;;;;;2.90;76.33;92725.50;5010768;28;20255;-83
2022/04/11 05:20:40;;;;;;;10.73;10.17;;;;;;;2.86;76.58;92727.75;5010651;28;20218;-85
2022/04/11 05:23:05;;;;;;;9.97;9.57;;;;;;;2.97;76.52;92733.91;5008512;28;20235;-79
2022/04/11 05:25:31;;;;;;;10.33;9.83;;;;;;;3.20;77.46;92741.53;5011383;28;20788;-77
2022/04/11 05:27:56;;;;;;;10.93;10.43;;;;;;;3.24;77.38;92730.53;5011753;28;20214;-82
2022/04/11 05:30:22;;;;;;;10.03;9.53;;;;;;;3.10;76.04;92718.13;5011062;28;20269;-82
2022/04/11 05:32:47;;;;;;;10.60;10.03;;;;;;;3.06;74.39;92711.88;5011599;28;20187;-81
2022/04/11 05:35:12;;;;;;;11.47;10.73;;;;;;;3.16;73.81;92733.47;5010870;28;20207;-80
2022/04/11 05:37:38;;;;;;;10.20;9.77;;;;;;;3.06;73.41;92724.78;5012176;28;20218;-80
2022/04/11 05:40:05;;;;;;;11.70;11.10;;;;;;;3.18;74.79;92741.78;5011609;28;20242;-81
2022/04/11 05:42:31;;;;;;;10.37;9.77;;;;;;;3.11;74.33;92714.56;5011834;28;20211;-80
2022/04/11 05:44:57;;;;;;;9.27;8.87;;;;;;;3.18;75.56;92735.81;5010860;28;20294;-82
2022/04/11 05:47:22;;;;;;;11.70;10.97;;;;;;;2.89;71.38;92734.25;5010529;28;20271;-79
2022/04/11 05:49:48;;;;;;;10.93;10.43;;;;;;;3.00;74.68;92721.31;5011308;28;20216;-78
2022/04/11 05:52:15;;;;;;;10.10;9.60;;;;;;;3.44;74.36;92744.81;5011479;28;20191;-77
2022/04/11 05:54:41;;;;;;;11.43;10.83;;;;;;;3.18;71.40;92756.47;5011518;28;20224;-77
2022/04/11 05:57:06;;;;;;;10.43;10.03;;;;;;;3.05;71.44;92749.00;5011450;28;20179;-76
2022/04/11 05:59:32;;;;;;;11.07;10.33;;;;;;;3.28;72.72;92757.41;5011022;28;20473;-78
2022/04/11 06:01:57;;;;;;;11.60;11.00;;;;;;;2.94;70.87;92739.50;5010612;28;20215;-78
2022/04/11 06:04:23;;;;;;;10.60;9.90;;;;;;;3.29;72.42;92763.38;5010217;28;20235;-76
2022/04/11 06:06:48;;;;;;;10.80;9.70;;;;;;;3.34;70.77;92771.22;5011308;28;20199;-75
2022/04/11 06:09:14;;;;;;;11.30;10.57;;;;;;;3.32;72.28;92742.28;5009333;28;20254;-81
2022/04/11 06:11:39;;;;;;;10.87;9.97;;;;;;;3.27;71.80;92765.38;5010351;28;20191;-79
2022/04/11 06:14:05;;;;;;;11.40;10.70;;;;;;;3.51;70.91;92764.28;5006705;28;20223;-79
2022/04/11 06:16:30;;;;;;;11.97;10.97;;;;;;;3.46;73.16;92764.19;5011976;28;20195;-79
2022/04/11 06:18:56;;;;;;;11.37;10.63;;;;;;;3.48;72.16;92772.50;5011043;28;20223;-80
2022/04/11 06:21:21;;;;;;;9.30;8.80;;;;;;;3.39;70.47;92753.25;5011124;28;20235;-79
2022/04/11 06:23:47;;;;;;;11.57;10.77;;;;;;;3.19;70.04;92769.13;5009820;28;20227;-81
2022/04/11 06:26:12;;;;;;;10.93;10.13;;;;;;;3.34;68.50;92776.38;5010731;28;20230;-83
2022/04/11 06:28:41;;;;;;;10.13;9.63;;;;;;;3.36;70.35;92764.03;5011044;28;20223;-81
2022/04/11 06:31:08;;;;;;;11.43;10.60;;;;;;;3.47;70.36;92775.31;5005074;28;20195;-84
2022/04/11 06:33:36;;;;;;;10.47;9.87;;;;;;;3.54;72.12;92732.84;5010932;28;20227;-77
2022/04/11 06:36:02;;;;;;;10.10;9.57;;;;;;;3.80;71.39;92736.66;5010465;28;20176;-85
2022/04/11 06:38:27;;;;;;;10.37;9.87;;;;;;;4.15;71.61;92771.56;5010471;28;20230;-83
2022/04/11 06:40:55;;;;;;;10.63;9.93;;;;;;;4.15;70.40;92774.13;5010353;28;20196;-84
2022/04/11 06:43:22;;;;;;;10.53;10.00;;;;;;;4.15;68.53;92788.84;5010367;28;20290;-84
2022/04/11 06:45:47;;;;;;;10.30;9.80;;;;;;;4.48;70.96;92783.66;5010605;28;20187;-80
2022/04/11 06:48:13;;;;;;;11.33;10.63;;;;;;;4.49;67.88;92798.16;5010039;28;20239;-80
2022/04/11 06:50:38;;;;;;;9.93;9.43;;;;;;;4.65;68.84;92780.00;5010642;28;20227;-82
2022/04/11 06:53:04;;;;;;;10.17;9.77;;;;;;;4.83;67.80;92802.25;5010097;28;20211;-81
2022/04/11 06:55:29;;;;;;;11.93;11.27;;;;;;;4.71;67.12;92794.59;5010694;28;20179;-78
2022/04/11 06:57:55;;;;;;;11.33;10.73;;;;;;;4.07;67.76;92776.31;5009902;28;20258;-78
2022/04/11 07:00:20;;;;;;;10.63;10.13;;;;;;;4.35;68.03;92805.44;5010412;28;20192;-80
2022/04/11 07:02:46;;;;;;;11.80;11.10;;;;;;;4.38;69.65;92770.59;5010219;28;20215;-79
2022/04/11 07:05:11;;;;;;;10.83;10.10;;;;;;;4.33;69.43;92776.47;5010480;28;20188;-79
2022/04/11 07:07:39;;;;;;;11.33;10.63;;;;;;;4.63;68.05;92789.84;5010211;28;20276;-80
2022/04/11 07:10:05;;;;;;;13.27;12.47;;;;;;;4.79;68.64;92791.59;5010151;28;20223;-79
2022/04/11 07:12:31;;;;;;;11.47;10.77;;;;;;;5.06;66.81;92806.44;5010221;28;20175;-79
2022/04/11 07:15:00;;;;;;;12.30;11.50;;;;;;;4.96;66.36;92815.59;5010682;28;20242;-79
2022/04/11 07:17:26;;;;;;;12.20;11.13;;;;;;;4.98;66.13;92810.19;5010027;28;20183;-79
2022/04/11 07:19:52;;;;;;;10.63;10.03;;;;;;;5.33;66.27;92812.44;5010173;28;20235;-78
2022/04/11 07:22:21;;;;;;;10.50;10.00;;;;;;;5.33;64.91;92807.25;5009189;28;20266;-79
2022/04/11 07:24:47;;;;;;;10.97;10.07;;;;;;;4.83;65.15;92759.06;5009413;28;20230;-80
2022/04/11 07:27:12;;;;;;;19.60;11.33;;;;;;;5.13;65.17;92801.84;5010026;28;20184;-80
2022/04/11 07:29:37;;;;;;;10.97;10.47;;;;;;;5.38;64.49;92810.69;5009827;28;20235;-79
2022/04/11 07:32:03;;;;;;;10.33;9.37;;;;;;;5.32;64.09;92808.28;5010139;28;20250;-77
2022/04/11 07:34:29;;;;;;;10.10;9.60;;;;;;;5.29;64.34;92801.81;5008031;28;20238;-78
2022/04/11 07:36:54;;;;;;;10.87;10.37;;;;;;;5.54;64.23;92824.59;5010129;28;20198;-79
2022/04/11 07:39:20;;;;;;;10.23;9.63;;;;;;;5.76;63.99;92830.53;5009106;28;20219;-79
2022/04/11 07:41:46;;;;;;;11.60;10.90;;;;;;;5.51;63.28;92835.44;5008479;28;20226;-79
2022/04/11 07:44:11;;;;;;;10.30;9.90;;;;;;;5.38;63.98;92831.41;5008817;28;20242;-79
2022/04/11 07:46:37;;;;;;;12.10;11.20;;;;;;;5.42;63.85;92803.22;5008970;28;20194;-78
2022/04/11 07:49:02;;;;;;;11.23;10.20;;;;;;;5.65;62.80;92829.63;5009653;28;20298;-78
2022/04/11 07:51:28;;;;;;;10.00;9.47;;;;;;;5.64;63.02;92833.25;5010272;28;20211;-79
2022/04/11 07:53:53;;;;;;;9.97;9.57;;;;;;;5.50;62.41;92841.63;5009275;28;20258;-79
2022/04/11 07:56:18;;;;;;;9.70;9.30;;;;;;;5.91;62.45;92852.22;5009239;28;20223;-79
2022/04/11 07:58:44;;;;;;;9.43;9.03;;;;;;;5.84;62.09;92848.25;5009217;28;20290;-78
2022/04/11 08:01:16;;;;;;;10.37;9.80;;;;;;;6.07;59.18;92881.66;5008041;28;20229;-80
2022/04/11 08:03:42;;;;;;;10.37;9.80;;;;;;;6.00;60.38;92855.16;5010843;28;20231;-80
2022/04/11 08:06:08;;;;;;;10.30;9.70;;;;;;;6.86;61.08;92870.41;5009307;28;20243;-79
2022/04/11 08:08:33;;;;;;;11.20;10.60;;;;;;;7.32;58.88;92882.63;5009031;28;20227;-79
2022/04/11 08:10:59;;;;;;;10.77;10.00;;;;;;;6.97;58.80;92876.44;5009904;28;20187;-78
2022/04/11 08:13:24;;;;;;;11.13;10.57;;;;;;;6.75;58.36;92883.56;5009188;28;20215;-82
2022/04/11 08:15:50;;;;;;;10.67;9.93;;;;;;;6.97;60.25;92872.06;5009930;28;20199;-79
2022/04/11 08:18:15;;;;;;;12.43;11.43;;;;;;;7.32;57.50;92880.03;5003926;28;20320;-79
2022/04/11 08:20:40;;;;;;;10.80;10.07;;;;;;;6.94;57.20;92882.13;4989280;28;20179;-79
2022/04/11 08:23:06;;;;;;;11.43;10.67;;;;;;;6.71;58.45;92885.84;4991491;28;20223;-78
2022/04/11 08:25:31;;;;;;;10.83;10.13;;;;;;;6.13;58.78;92891.81;5010161;28;20198;-79
2022/04/11 08:27:57;;;;;;;10.33;9.83;;;;;;;6.21;58.03;92882.84;5009257;28;20279;-78
2022/04/11 08:30:22;;;;;;;10.70;10.20;;;;;;;5.86;59.22;92883.25;5009756;28;20188;-78
2022/04/11 08:32:50;;;;;;;10.87;10.37;;;;;;;6.26;60.33;92898.41;5008877;28;20206;-79
2022/04/11 08:35:20;;;;;;;11.10;10.60;;;;;;;6.35;58.49;92865.88;5008864;28;20187;-80
2022/04/11 08:37:45;;;;;;;11.73;10.93;;;;;;;6.09;58.53;92893.34;5008283;28;20187;-77
2022/04/11 08:40:12;;;;;;;11.67;10.60;;;;;;;6.44;58.58;92904.03;5009282;28;20255;-79
2022/04/11 08:42:39;;;;;;;11.97;11.40;;;;;;;6.37;59.08;92915.63;5009209;28;20222;-80
2022/04/11 08:45:05;;;;;;;10.43;9.57;;;;;;;6.82;60.90;92905.66;5008085;28;20235;-80
2022/04/11 08:47:31;;;;;;;9.73;9.30;;;;;;;6.62;55.83;92904.72;5013242;28;20198;-79
2022/04/11 08:49:57;;;;;;;10.00;9.47;;;;;;;6.73;56.55;92911.53;5012423;28;20235;-79
2022/04/11 08:52:22;;;;;;;9.73;9.07;;;;;;;6.44;55.04;92917.00;5011788;28;20199;-80
2022/04/11 08:54:48;;;;;;;10.97;10.43;;;;;;;6.79;55.12;92910.56;5012666;28;20235;-79
2022/04/11 08:57:13;;;;;;;9.93;9.43;;;;;;;6.96;54.76;92924.22;5012262;28;20199;-80
2022/04/11 08:59:39;;;;;;;10.33;9.73;;;;;;;6.81;55.01;92896.31;5012587;28;20262;-80
2022/04/11 09:02:10;;;;;;;9.10;8.70;;;;;;;6.85;55.14;92894.78;5011877;28;20227;-78
2022/04/11 09:04:52;;;;;;;9.87;9.37;;;;;;;7.29;55.32;92901.31;5012087;28;20227;-78
2022/04/11 09:07:18;;;;;;;10.87;10.27;;;;;;;7.63;54.40;92902.53;5012598;28;20245;-79
2022/04/11 09:09:43;;;;;;;9.33;8.83;;;;;;;6.75;55.80;92910.28;5012603;28;20238;-81
2022/04/11 09:12:13;;;;;;;11.83;11.27;;;;;;;6.45;58.03;92903.03;5012688;28;20259;-79
2022/04/11 09:14:39;;;;;;;11.57;10.43;;;;;;;6.33;54.45;92901.63;5012277;28;20246;-79
2022/04/11 09:17:04;;;;;;;10.27;9.77;;;;;;;6.54;55.45;92911.13;5012781;28;20286;-79
2022/04/11 09:19:31;;;;;;;10.30;9.80;;;;;;;6.33;56.55;92907.56;5011341;28;20226;-79
2022/04/11 09:21:57;;;;;;;10.63;10.17;;;;;;;6.03;57.93;92911.66;5012396;28;20242;-80
2022/04/11 09:24:25;;;;;;;10.07;9.50;;;;;;;5.95;59.54;92919.88;5011644;28;20223;-79
2022/04/11 09:26:55;;;;;;;12.23;11.33;;;;;;;5.84;59.80;92913.00;5012173;28;20198;-79
2022/04/11 09:29:23;;;;;;;11.20;10.57;;;;;;;6.01;58.42;92913.72;5011722;28;20219;-79
2022/04/11 09:31:48;;;;;;;10.67;10.17;;;;;;;6.28;59.43;92898.97;5011365;28;20183;-80
2022/04/11 09:34:15;;;;;;;10.27;9.67;;;;;;;6.40;55.74;92925.53;5010730;28;20235;-80
2022/04/11 09:36:55;;;;;;;11.07;10.37;;;;;;;6.58;57.37;92922.59;5012650;28;20207;-80
2022/04/11 09:39:23;;;;;;;9.93;9.43;;;;;;;6.80;55.94;92928.50;5011752;28;20211;-79
2022/04/11 09:41:50;;;;;;;10.37;9.67;;;;;;;6.61;54.60;92922.09;5011483;28;20215;-79
2022/04/11 09:44:27;;;;;;;9.97;9.47;;;;;;;6.55;55.43;92897.16;5011544;28;20228;-78
2022/04/11 09:46:59;;;;;;;9.63;9.17;;;;;;;6.66;53.82;92924.75;5012122;28;20883;-80
2022/04/11 09:49:25;;;;;;;9.77;9.27;;;;;;;7.06;53.49;92926.84;5011746;28;20223;-80
2022/04/11 09:52:04;;;;;;;10.03;9.17;;;;;;;7.28;55.04;92920.53;5011364;28;20184;-80
2022/04/11 09:54:30;;;;;;;9.53;9.13;;;;;;;7.28;53.21;92919.75;5010104;28;20227;-80
2022/04/11 09:56:59;;;;;;;9.63;8.93;;;;;;;7.26;52.27;92920.00;5011612;28;20180;-79
2022/04/11 09:59:26;;;;;;;10.70;10.10;;;;;;;7.29;51.70;92906.50;5010826;28;20215;-81
2022/04/11 10:01:53;;;;;;;9.87;9.33;;;;;;;7.20;51.28;92918.41;5011411;28;20223;-75
2022/04/11 10:04:19;;;;;;;10.13;9.63;;;;;;;7.27;53.09;92903.38;5011478;28;20343;-75
2022/04/11 10:06:45;;;;;;;9.20;8.80;;;;;;;7.57;51.71;92921.72;5011036;28;20199;-75
2022/04/11 10:09:12;;;;;;;10.57;9.67;;;;;;;7.35;49.23;92907.31;5011520;28;20482;-75
2022/04/11 10:11:39;;;;;;;10.50;9.93;;;;;;;7.24;51.12;92906.47;5009061;28;20280;-75
2022/04/11 10:14:06;;;;;;;9.90;9.50;;;;;;;6.86;49.02;92917.13;5010968;28;20232;-75
2022/04/11 10:16:32;;;;;;;10.80;10.00;;;;;;;7.16;51.89;92906.19;5010495;28;20275;-75
2022/04/11 10:19:02;;;;;;;9.60;9.20;;;;;;;6.91;51.86;92898.97;5009732;28;20887;-75
2022/04/11 10:21:28;;;;;;;11.10;10.40;;;;;;;7.16;52.78;92886.16;5009863;28;20231;-75
2022/04/11 10:24:01;;;;;;;10.77;10.10;;;;;;;7.15;53.77;92909.78;5010081;28;20226;-75
2022/04/11 10:26:43;;;;;;;11.60;10.80;;;;;;;6.86;50.29;92916.34;5010669;28;20187;-75
2022/04/11 10:29:34;;;;;;;10.00;9.50;;;;;;;7.00;51.04;92918.25;5009228;28;20220;-75
2022/04/11 10:32:18;;;;;;;10.70;10.20;;;;;;;6.92;51.82;92926.50;5009692;28;20463;-75
2022/04/11 10:34:48;;;;;;;10.23;9.60;;;;;;;6.40;53.98;92866.69;5010222;28;20239;-76
2022/04/11 10:37:14;;;;;;;11.10;10.50;;;;;;;6.90;52.49;92922.56;5011476;28;20811;-75
2022/04/11 10:39:43;;;;;;;10.23;9.73;;;;;;;6.52;52.40;92913.22;5011723;28;20227;-75
2022/04/11 10:42:11;;;;;;;11.60;10.90;;;;;;;6.50;55.73;92908.28;5009569;28;20740;-75
2022/04/11 10:44:48;;;;;;;10.20;9.33;;;;;;;6.82;53.72;92920.47;5009889;28;20235;-80
2022/04/11 10:47:17;;;;;;;12.00;11.20;;;;;;;7.36;51.79;92914.09;5007667;28;20194;-79
2022/04/11 10:49:48;;;;;;;10.90;10.27;;;;;;;7.47;50.33;92908.69;5009900;28;20235;-78
2022/04/11 10:52:41;;;;;;;11.50;10.90;;;;;;;7.49;51.48;92905.81;5010279;28;20175;-79
2022/04/11 10:55:06;;;;;;;10.83;10.33;;;;;;;7.44;49.07;92916.97;5010050;28;20267;-81
2022/04/11 10:57:50;;;;;;;9.83;9.37;;;;;;;7.79;48.73;92913.78;5010624;28;20203;-82
2022/04/11 11:00:19;;;;;;;10.17;9.27;;;;;;;8.30;46.86;92896.53;5009550;28;20274;-80
2022/04/11 11:02:54;;;;;;;10.97;10.40;;;;;;;7.86;48.33;92909.91;5010343;28;20239;-78
2022/04/11 11:05:29;;;;;;;9.80;9.37;;;;;;;7.58;47.83;92915.50;5009266;28;20214;-80
2022/04/11 11:08:13;;;;;;;10.13;9.43;;;;;;;7.69;48.40;92911.91;5022572;28;20202;-80
2022/04/11 11:10:50;;;;;;;10.13;9.63;;;;;;;7.94;49.63;92922.41;5009260;28;20251;-80
2022/04/11 11:13:34;;;;;;;11.47;10.67;;;;;;;7.70;50.54;92925.69;5004581;28;20235;-79
2022/04/11 11:16:20;;;;;;;9.20;8.80;;;;;;;8.25;47.61;92923.31;4990165;28;20191;-78
2022/04/11 11:18:48;;;;;;;9.57;9.13;;;;;;;8.10;47.27;92918.03;4976331;28;20245;-80
2022/04/11 11:21:27;;;;;;;10.80;9.97;;;;;;;8.07;48.25;92887.38;5008075;28;20226;-80
2022/04/11 11:24:08;;;;;;;9.80;9.13;;;;;;;8.29;45.94;92926.19;5009203;28;21030;-80
2022/04/11 11:26:46;;;;;;;9.67;9.27;;;;;;;8.66;44.94;92924.19;5010179;28;20187;-78
2022/04/11 11:29:39;;;;;;;10.83;10.23;;;;;;;8.42;46.85;92920.50;5024519;28;20227;-78
2022/04/11 11:32:06;;;;;;;10.03;9.33;;;;;;;8.32;46.99;92892.66;5009558;28;20219;-84